createdAt,value
2022-12-25T00:01:56.849Z,28.00
2022-12-25T00:04:25.731Z,14.80
2022-12-25T00:06:54.518Z,18.47
2022-12-25T00:09:23.284Z,19.80
2022-12-25T00:11:52.062Z,13.63
2022-12-25T00:14:20.826Z,17.30
2022-12-25T00:16:51.175Z,17.00
2022-12-25T00:19:19.989Z,8.73
2022-12-25T00:21:48.762Z,8.73
2022-12-25T00:24:17.499Z,6.07
2022-12-25T00:26:46.267Z,7.00
2022-12-25T00:29:15.213Z,6.93
2022-12-25T00:31:44.106Z,7.17
2022-12-25T00:34:14.462Z,6.70
2022-12-25T00:36:43.305Z,6.90
2022-12-25T00:39:12.561Z,6.80
2022-12-25T00:41:58.883Z,7.10
2022-12-25T00:44:27.669Z,6.30
2022-12-25T00:46:56.479Z,7.93
2022-12-25T00:49:26.830Z,7.27
2022-12-25T00:51:55.843Z,8.33
2022-12-25T00:54:24.836Z,7.00
2022-12-25T00:56:53.567Z,7.77
2022-12-25T00:59:22.391Z,7.57
2022-12-25T01:01:51.285Z,7.47
2022-12-25T01:04:20.183Z,6.20
2022-12-25T01:06:50.368Z,6.67
2022-12-25T01:09:36.425Z,7.03
2022-12-25T01:12:05.399Z,6.73
2022-12-25T01:14:34.145Z,7.33
2022-12-25T01:17:02.900Z,6.90
2022-12-25T01:19:31.600Z,6.70
2022-12-25T01:22:01.747Z,8.53
2022-12-25T01:24:30.471Z,8.00
2022-12-25T01:26:59.243Z,7.03
2022-12-25T01:29:27.934Z,7.83
2022-12-25T01:31:57.025Z,9.30
2022-12-25T01:34:25.784Z,9.53
2022-12-25T01:36:54.610Z,8.93
2022-12-25T01:39:24.770Z,9.00
2022-12-25T01:41:53.431Z,9.43
2022-12-25T01:44:59.206Z,7.77
2022-12-25T01:47:27.954Z,8.40
2022-12-25T01:49:56.794Z,8.23
2022-12-25T01:52:27.114Z,8.70
2022-12-25T01:54:59.507Z,8.60
2022-12-25T01:57:30.841Z,7.90
2022-12-25T02:00:00.325Z,9.63
2022-12-25T02:02:30.498Z,7.90
2022-12-25T02:05:04.572Z,8.73
2022-12-25T02:07:36.458Z,7.37
2022-12-25T02:10:07.637Z,7.70
2022-12-25T02:12:37.369Z,7.80
2022-12-25T02:15:09.670Z,8.20
2022-12-25T02:17:43.143Z,7.33
2022-12-25T02:20:48.341Z,7.70
2022-12-25T02:23:50.296Z,8.10
2022-12-25T02:26:35.035Z,7.77
2022-12-25T02:29:11.428Z,7.43
2022-12-25T02:31:46.047Z,7.00
2022-12-25T02:34:17.996Z,6.80
2022-12-25T02:36:51.484Z,8.30
2022-12-25T02:39:44.870Z,7.10
2022-12-25T02:42:20.592Z,7.53
2022-12-25T02:45:16.040Z,6.80
2022-12-25T02:48:02.109Z,8.77
2022-12-25T02:50:48.413Z,8.57
2022-12-25T02:53:34.676Z,8.67
2022-12-25T02:56:21.023Z,9.33
2022-12-25T02:59:19.916Z,8.23
2022-12-25T03:02:07.544Z,7.90
2022-12-25T03:04:55.528Z,8.23
2022-12-25T03:07:27.471Z,10.33
2022-12-25T03:10:19.676Z,7.57
2022-12-25T03:12:53.433Z,8.40
2022-12-25T03:15:40.251Z,7.93
2022-12-25T03:18:13.541Z,8.90
2022-12-25T03:21:03.089Z,8.47
2022-12-25T03:23:52.739Z,7.77
2022-12-25T03:26:38.940Z,7.93
2022-12-25T03:29:07.915Z,8.27
2022-12-25T03:31:44.128Z,8.17
2022-12-25T03:34:52.473Z,9.40
2022-12-25T03:38:01.559Z,7.07
2022-12-25T03:40:54.951Z,8.00
2022-12-25T03:43:51.559Z,8.57
2022-12-25T03:46:39.890Z,10.30
2022-12-25T03:49:31.852Z,10.67
2022-12-25T03:52:21.827Z,8.40
2022-12-25T03:55:10.222Z,8.60
2022-12-25T03:57:56.264Z,7.87
2022-12-25T04:00:47.724Z,8.83
2022-12-25T04:03:34.018Z,8.67
2022-12-25T04:06:20.055Z,8.40
2022-12-25T04:09:07.333Z,9.87
2022-12-25T04:11:58.769Z,11.10
2022-12-25T04:14:48.363Z,11.83
2022-12-25T04:17:34.727Z,8.30
2022-12-25T04:20:20.830Z,10.00
2022-12-25T04:23:07.096Z,8.43
2022-12-25T04:25:54.688Z,9.90
2022-12-25T04:28:40.989Z,10.43
2022-12-25T04:31:27.298Z,8.27
2022-12-25T04:34:13.581Z,8.83
2022-12-25T04:36:42.325Z,10.23
2022-12-25T04:39:11.805Z,9.37
2022-12-25T04:41:41.885Z,24.20
2022-12-25T04:44:11.265Z,18.37
2022-12-25T04:46:40.018Z,21.50
2022-12-25T04:49:08.792Z,20.90
2022-12-25T04:51:38.681Z,13.60
2022-12-25T04:54:07.448Z,13.00
2022-12-25T04:56:41.689Z,11.70
2022-12-25T04:59:15.678Z,10.77
2022-12-25T05:01:44.563Z,11.00
2022-12-25T05:04:13.516Z,9.90
2022-12-25T05:06:42.242Z,9.67
2022-12-25T05:09:11.534Z,10.10
2022-12-25T05:11:40.244Z,10.57
2022-12-25T05:14:08.942Z,9.87
2022-12-25T05:16:39.230Z,9.90
2022-12-25T05:19:08.160Z,9.37
2022-12-25T05:21:36.955Z,10.40
2022-12-25T05:24:05.986Z,9.00
2022-12-25T05:26:34.718Z,10.37
2022-12-25T05:29:03.429Z,9.30
2022-12-25T05:31:32.405Z,9.70
2022-12-25T05:34:03.899Z,12.43
2022-12-25T05:36:32.590Z,9.80
2022-12-25T05:39:01.254Z,11.10
2022-12-25T05:41:34.137Z,9.57
2022-12-25T05:44:03.445Z,11.50
2022-12-25T05:46:32.211Z,10.43
2022-12-25T05:49:00.950Z,13.20
2022-12-25T05:51:31.164Z,13.40
2022-12-25T05:53:59.974Z,11.93
2022-12-25T05:56:28.741Z,8.90
2022-12-25T05:58:57.517Z,9.03
2022-12-25T06:01:28.777Z,9.40
2022-12-25T06:03:58.309Z,8.70
2022-12-25T06:06:27.525Z,10.30
2022-12-25T06:08:57.754Z,9.07
2022-12-25T06:11:26.503Z,7.57
2022-12-25T06:13:55.915Z,9.53
2022-12-25T06:16:24.813Z,9.97
2022-12-25T06:18:53.903Z,9.47
2022-12-25T06:21:22.671Z,10.30
2022-12-25T06:23:51.590Z,10.23
2022-12-25T06:26:22.385Z,10.63
2022-12-25T06:28:51.085Z,11.30
2022-12-25T06:31:22.552Z,11.70
2022-12-25T06:33:51.502Z,13.73
2022-12-25T06:36:22.768Z,19.80
2022-12-25T06:38:52.454Z,20.17
2022-12-25T06:41:24.462Z,15.90
2022-12-25T06:43:54.858Z,16.40
2022-12-25T06:46:25.636Z,17.70
2022-12-25T06:48:55.765Z,24.57
2022-12-25T06:51:26.103Z,18.33
2022-12-25T06:53:55.793Z,21.83
2022-12-25T06:56:27.637Z,21.70
2022-12-25T06:58:57.934Z,23.00
2022-12-25T07:01:29.809Z,21.13
2022-12-25T07:04:00.210Z,22.37
2022-12-25T07:06:29.138Z,23.03
2022-12-25T07:08:57.862Z,21.30
2022-12-25T07:11:28.343Z,21.93
2022-12-25T07:13:57.122Z,21.90
2022-12-25T07:16:25.991Z,20.67
2022-12-25T07:18:54.829Z,22.43
2022-12-25T07:21:23.937Z,19.57
2022-12-25T07:23:52.872Z,32.53
2022-12-25T07:26:21.519Z,24.40
2022-12-25T07:28:51.932Z,23.70
2022-12-25T07:31:20.671Z,22.63
2022-12-25T07:33:49.572Z,24.43
2022-12-25T07:36:18.827Z,23.37
2022-12-25T07:38:51.060Z,24.07
2022-12-25T07:41:19.867Z,21.07
2022-12-25T07:43:53.176Z,20.50
2022-12-25T07:46:22.907Z,18.33
2022-12-25T07:48:52.047Z,23.57
2022-12-25T07:51:20.948Z,23.63
2022-12-25T07:53:49.611Z,23.47
2022-12-25T07:56:20.571Z,22.77
2022-12-25T07:58:49.699Z,20.63
2022-12-25T08:01:22.010Z,22.50
2022-12-25T08:03:51.998Z,22.63
2022-12-25T08:06:22.496Z,15.87
2022-12-25T08:08:51.326Z,20.67
2022-12-25T08:11:20.112Z,18.10
2022-12-25T08:13:49.099Z,15.90
2022-12-25T08:16:19.361Z,15.97
2022-12-25T08:18:48.147Z,15.20
2022-12-25T08:21:17.378Z,15.63
2022-12-25T08:23:48.453Z,15.13
2022-12-25T08:26:19.636Z,13.70
2022-12-25T08:28:49.034Z,11.90
2022-12-25T08:31:21.893Z,12.80
2022-12-25T08:33:52.784Z,12.07
2022-12-25T08:36:22.193Z,12.33
2022-12-25T08:38:51.250Z,12.10
2022-12-25T08:41:21.113Z,12.57
2022-12-25T08:43:49.887Z,13.53
2022-12-25T08:46:20.254Z,12.93
2022-12-25T08:48:50.607Z,13.17
2022-12-25T08:51:22.260Z,11.97
2022-12-25T08:53:52.809Z,12.33
2022-12-25T08:56:22.180Z,11.77
2022-12-25T08:58:50.952Z,12.90
2022-12-25T09:01:21.240Z,13.10
2022-12-25T09:03:50.206Z,13.70
2022-12-25T09:06:19.628Z,13.47
2022-12-25T09:08:49.814Z,14.17
2022-12-25T09:11:20.534Z,16.87
2022-12-25T09:13:50.069Z,21.07
2022-12-25T09:16:23.517Z,24.77
2022-12-25T09:18:52.479Z,11.93
2022-12-25T09:21:21.539Z,11.70
2022-12-25T09:23:50.341Z,9.90
2022-12-25T09:26:21.227Z,10.37
2022-12-25T09:28:52.655Z,9.93
2022-12-25T09:31:24.407Z,9.67
2022-12-25T09:33:56.798Z,9.10
2022-12-25T09:36:26.229Z,8.57
2022-12-25T09:38:55.123Z,8.93
2022-12-25T09:41:30.155Z,8.97
2022-12-25T09:44:03.661Z,9.63
2022-12-25T09:46:41.243Z,10.13
2022-12-25T09:49:20.075Z,9.23
2022-12-25T09:51:53.791Z,8.60
2022-12-25T09:54:29.721Z,8.60
2022-12-25T09:56:58.863Z,9.50
2022-12-25T09:59:28.721Z,9.37
2022-12-25T10:02:22.564Z,8.77
2022-12-25T10:05:07.515Z,8.00
2022-12-25T10:07:44.945Z,8.67
2022-12-25T10:10:34.696Z,7.93
2022-12-25T10:13:11.402Z,9.53
2022-12-25T10:15:51.165Z,10.20
2022-12-25T10:18:39.221Z,9.77
2022-12-25T10:21:13.943Z,11.00
2022-12-25T10:23:47.441Z,10.80
2022-12-25T10:26:18.060Z,9.73
2022-12-25T10:28:51.506Z,10.80
2022-12-25T10:31:22.852Z,9.30
2022-12-25T10:33:55.341Z,9.90
2022-12-25T10:36:26.022Z,10.87
2022-12-25T10:38:56.192Z,10.77
2022-12-25T10:41:37.202Z,11.10
2022-12-25T10:44:15.275Z,11.30
2022-12-25T10:46:49.213Z,11.20
2022-12-25T10:49:22.776Z,11.10
2022-12-25T10:51:52.194Z,11.90
2022-12-25T10:54:26.428Z,10.93
2022-12-25T10:56:59.551Z,11.20
2022-12-25T10:59:29.416Z,12.00
2022-12-25T11:02:05.453Z,10.80
2022-12-25T11:04:37.376Z,11.10
2022-12-25T11:07:15.343Z,8.40
2022-12-25T11:09:51.526Z,9.87
2022-12-25T11:12:22.069Z,9.50
2022-12-25T11:14:56.104Z,8.00
2022-12-25T11:17:27.341Z,7.57
2022-12-25T11:19:59.465Z,7.23
2022-12-25T11:22:29.591Z,7.73
2022-12-25T11:24:58.699Z,8.17
2022-12-25T11:27:29.873Z,7.70
2022-12-25T11:30:01.383Z,8.07
2022-12-25T11:32:33.099Z,8.17
2022-12-25T11:35:04.159Z,6.77
2022-12-25T11:37:39.387Z,7.00
2022-12-25T11:40:15.248Z,6.80
2022-12-25T11:42:48.951Z,7.30
2022-12-25T11:45:20.012Z,6.87
2022-12-25T11:47:53.545Z,6.70
2022-12-25T11:50:28.763Z,7.53
2022-12-25T11:52:59.429Z,7.00
2022-12-25T11:55:36.995Z,7.83
2022-12-25T11:58:15.543Z,7.70
2022-12-25T12:00:47.677Z,6.70
2022-12-25T12:03:38.713Z,7.00
2022-12-25T12:06:17.383Z,6.97
2022-12-25T12:08:47.992Z,6.73
2022-12-25T12:11:21.654Z,6.53
2022-12-25T12:14:03.854Z,6.60
2022-12-25T12:16:32.904Z,6.90
2022-12-25T12:19:13.390Z,6.70
2022-12-25T12:21:49.976Z,7.00
2022-12-25T12:24:22.670Z,7.30
2022-12-25T12:27:02.722Z,7.70
2022-12-25T12:29:36.549Z,7.00
2022-12-25T12:32:08.151Z,6.80
2022-12-25T12:34:43.953Z,7.23
2022-12-25T12:37:24.626Z,7.67
2022-12-25T12:39:55.355Z,6.77
2022-12-25T12:42:27.514Z,7.20
2022-12-25T12:44:58.378Z,7.47
2022-12-25T12:47:33.903Z,7.20
2022-12-25T12:50:03.323Z,7.03
2022-12-25T12:52:38.965Z,7.83
2022-12-25T12:55:10.159Z,7.60
2022-12-25T12:57:40.620Z,6.97
2022-12-25T13:00:17.600Z,7.30
2022-12-25T13:03:08.990Z,8.37
2022-12-25T13:05:42.089Z,7.33
2022-12-25T13:08:33.550Z,7.90
2022-12-25T13:11:11.942Z,7.13
2022-12-25T13:13:44.026Z,7.20
2022-12-25T13:16:26.792Z,6.60
2022-12-25T13:18:58.058Z,7.40
2022-12-25T13:21:27.902Z,7.60
2022-12-25T13:24:02.850Z,8.77
2022-12-25T13:26:32.322Z,8.47
2022-12-25T13:29:02.953Z,8.67
2022-12-25T13:31:35.901Z,10.20
2022-12-25T13:34:07.035Z,8.50
2022-12-25T13:36:40.406Z,8.50
2022-12-25T13:39:16.642Z,7.70
2022-12-25T13:42:06.935Z,9.60
2022-12-25T13:44:44.520Z,9.70
2022-12-25T13:47:25.951Z,10.33
2022-12-25T13:49:57.097Z,9.67
2022-12-25T13:52:35.335Z,9.77
2022-12-25T13:55:13.349Z,10.17
2022-12-25T13:57:45.200Z,8.93
2022-12-25T14:00:22.000Z,8.60
2022-12-25T14:02:52.347Z,8.97
2022-12-25T14:05:27.034Z,9.80
2022-12-25T14:07:56.674Z,11.83
2022-12-25T14:10:28.795Z,9.70
2022-12-25T14:13:01.460Z,9.57
2022-12-25T14:15:33.565Z,10.93
2022-12-25T14:18:02.595Z,11.13
2022-12-25T14:20:36.259Z,11.83
2022-12-25T14:23:06.636Z,11.57
2022-12-25T14:25:43.214Z,10.90
2022-12-25T14:28:20.210Z,14.70
2022-12-25T14:30:49.844Z,12.23
2022-12-25T14:33:22.725Z,11.47
2022-12-25T14:35:52.665Z,12.30
2022-12-25T14:38:25.878Z,12.23
2022-12-25T14:41:04.496Z,10.77
2022-12-25T14:43:34.826Z,10.53
2022-12-25T14:46:06.710Z,11.13
2022-12-25T14:48:35.881Z,11.50
2022-12-25T14:51:08.160Z,11.37
2022-12-25T14:53:39.601Z,11.80
2022-12-25T14:56:10.864Z,12.67
2022-12-25T14:58:44.131Z,11.87
2022-12-25T15:01:22.476Z,13.63
2022-12-25T15:03:51.645Z,10.37
2022-12-25T15:06:22.696Z,9.93
2022-12-25T15:08:59.746Z,10.77
2022-12-25T15:11:30.378Z,11.40
2022-12-25T15:14:01.048Z,10.87
2022-12-25T15:16:32.743Z,12.50
2022-12-25T15:19:02.767Z,12.03
2022-12-25T15:21:34.567Z,12.40
2022-12-25T15:24:03.506Z,12.50
2022-12-25T15:26:34.311Z,12.23
2022-12-25T15:29:03.088Z,11.17
2022-12-25T15:31:33.293Z,11.13
2022-12-25T15:34:03.709Z,11.30
2022-12-25T15:36:32.536Z,12.13
2022-12-25T15:39:01.364Z,11.40
2022-12-25T15:41:50.589Z,11.23
2022-12-25T15:44:19.568Z,10.87
2022-12-25T15:46:48.819Z,12.40
2022-12-25T15:49:18.424Z,14.27
2022-12-25T15:51:47.640Z,12.27
2022-12-25T15:54:16.777Z,12.93
2022-12-25T15:56:49.285Z,14.10
2022-12-25T15:59:19.571Z,11.97
2022-12-25T16:01:50.873Z,12.47
2022-12-25T16:04:20.177Z,13.90
2022-12-25T16:06:49.327Z,12.63
2022-12-25T16:09:20.237Z,12.90
2022-12-25T16:11:50.920Z,14.70
2022-12-25T16:14:20.445Z,15.47
2022-12-25T16:16:49.233Z,15.60
2022-12-25T16:19:18.014Z,13.70
2022-12-25T16:21:48.222Z,15.53
2022-12-25T16:24:17.336Z,14.90
2022-12-25T16:26:46.190Z,16.90
2022-12-25T16:29:16.541Z,17.00
2022-12-25T16:31:45.601Z,17.13
2022-12-25T16:34:14.685Z,17.67
2022-12-25T16:36:43.564Z,21.43
2022-12-25T16:39:12.344Z,19.70
2022-12-25T16:41:41.366Z,16.93
2022-12-25T16:44:11.450Z,15.03
2022-12-25T16:46:42.361Z,16.43
2022-12-25T16:49:11.332Z,16.70
2022-12-25T16:51:40.251Z,14.23
2022-12-25T16:54:09.997Z,17.43
2022-12-25T16:56:38.800Z,14.70
2022-12-25T16:59:07.655Z,15.53
2022-12-25T17:01:38.221Z,18.20
2022-12-25T17:04:08.742Z,15.97
2022-12-25T17:06:37.994Z,23.13
2022-12-25T17:09:07.806Z,24.97
2022-12-25T17:11:36.667Z,17.07
2022-12-25T17:14:07.048Z,17.53
2022-12-25T17:16:38.238Z,18.00
2022-12-25T17:19:13.740Z,19.70
2022-12-25T17:21:42.582Z,18.10
2022-12-25T17:24:11.613Z,18.10
2022-12-25T17:26:41.712Z,18.27
2022-12-25T17:29:11.118Z,20.53
2022-12-25T17:31:40.665Z,18.83
2022-12-25T17:34:15.047Z,20.50
2022-12-25T17:36:44.024Z,18.23
2022-12-25T17:39:13.460Z,18.83
2022-12-25T17:41:42.476Z,19.57
2022-12-25T17:44:11.975Z,20.07
2022-12-25T17:46:41.094Z,19.93
2022-12-25T17:49:16.562Z,20.77
2022-12-25T17:51:45.699Z,17.17
2022-12-25T17:54:14.939Z,19.57
2022-12-25T17:56:43.803Z,19.83
2022-12-25T17:59:18.769Z,19.50
2022-12-25T18:01:49.607Z,21.37
2022-12-25T18:04:20.151Z,19.40
2022-12-25T18:06:49.093Z,19.63
2022-12-25T18:09:19.385Z,20.33
2022-12-25T18:11:48.368Z,20.00
2022-12-25T18:14:18.493Z,19.90
2022-12-25T18:16:48.113Z,21.33
2022-12-25T18:19:19.883Z,21.40
2022-12-25T18:21:48.713Z,27.87
2022-12-25T18:24:17.591Z,21.30
2022-12-25T18:26:46.717Z,20.37
2022-12-25T18:29:15.497Z,21.23
2022-12-25T18:31:44.351Z,20.53
2022-12-25T18:34:13.248Z,20.60
2022-12-25T18:36:43.529Z,22.13
2022-12-25T18:39:14.548Z,22.37
2022-12-25T18:41:57.287Z,20.87
2022-12-25T18:44:26.349Z,20.90
2022-12-25T18:46:55.166Z,21.50
2022-12-25T18:49:24.113Z,20.53
2022-12-25T18:51:54.813Z,23.40
2022-12-25T18:54:44.004Z,22.03
2022-12-25T18:57:12.936Z,23.13
2022-12-25T18:59:43.034Z,22.97
2022-12-25T19:02:13.348Z,21.43
2022-12-25T19:04:43.728Z,20.20
2022-12-25T19:07:14.453Z,22.10
2022-12-25T19:09:43.471Z,21.10
2022-12-25T19:12:12.784Z,22.50
2022-12-25T19:14:47.918Z,21.70
2022-12-25T19:17:17.675Z,22.97
2022-12-25T19:19:46.826Z,22.27
2022-12-25T19:22:17.405Z,23.00
2022-12-25T19:24:46.471Z,21.77
2022-12-25T19:27:15.323Z,22.83
2022-12-25T19:29:44.216Z,22.30
2022-12-25T19:32:13.275Z,22.13
2022-12-25T19:34:42.408Z,21.70
2022-12-25T19:37:11.690Z,23.23
2022-12-25T19:39:46.944Z,21.30
2022-12-25T19:42:19.190Z,21.13
2022-12-25T19:44:48.577Z,20.80
2022-12-25T19:47:17.519Z,19.23
2022-12-25T19:49:50.986Z,21.40
2022-12-25T19:52:22.489Z,20.83
2022-12-25T19:54:54.083Z,21.17
2022-12-25T19:57:23.661Z,23.07
2022-12-25T19:59:52.695Z,20.40
2022-12-25T20:02:25.639Z,20.40
2022-12-25T20:04:55.581Z,22.73
2022-12-25T20:07:26.224Z,22.90
2022-12-25T20:09:57.490Z,22.07
2022-12-25T20:12:26.892Z,22.93
2022-12-25T20:14:57.017Z,23.00
2022-12-25T20:17:27.503Z,23.90
2022-12-25T20:20:00.376Z,23.90
2022-12-25T20:22:33.321Z,21.43
2022-12-25T20:25:04.716Z,22.43
2022-12-25T20:27:33.768Z,22.37
2022-12-25T20:30:03.052Z,20.43
2022-12-25T20:32:33.212Z,20.60
2022-12-25T20:35:02.683Z,19.10
2022-12-25T20:37:32.316Z,20.23
2022-12-25T20:40:05.896Z,20.60
2022-12-25T20:42:37.837Z,21.20
2022-12-25T20:45:10.378Z,21.60
2022-12-25T20:47:40.546Z,20.00
2022-12-25T20:50:11.347Z,18.87
2022-12-25T20:52:41.028Z,20.80
2022-12-25T20:55:15.176Z,20.87
2022-12-25T20:57:46.982Z,21.43
2022-12-25T21:00:34.953Z,20.50
2022-12-25T21:03:05.791Z,20.27
2022-12-25T21:05:35.414Z,22.67
2022-12-25T21:08:04.413Z,22.60
2022-12-25T21:10:36.570Z,24.23
2022-12-25T21:13:05.708Z,23.60
2022-12-25T21:15:35.092Z,22.17
2022-12-25T21:18:04.164Z,22.40
2022-12-25T21:20:32.954Z,22.10
2022-12-25T21:23:02.947Z,20.77
2022-12-25T21:25:32.323Z,20.00
2022-12-25T21:28:04.846Z,17.00
2022-12-25T21:30:34.395Z,18.50
2022-12-25T21:33:21.595Z,16.70
2022-12-25T21:35:51.493Z,17.93
2022-12-25T21:38:29.107Z,16.70
2022-12-25T21:41:15.588Z,14.03
2022-12-25T21:43:49.281Z,15.00
2022-12-25T21:46:18.739Z,17.10
2022-12-25T21:48:58.626Z,15.00
2022-12-25T21:51:55.114Z,13.73
2022-12-25T21:54:42.324Z,13.80
2022-12-25T21:57:13.188Z,14.50
2022-12-25T21:59:43.475Z,15.17
2022-12-25T22:02:14.753Z,14.17
2022-12-25T22:04:45.495Z,13.73
2022-12-25T22:07:20.539Z,13.63
2022-12-25T22:10:01.026Z,16.00
2022-12-25T22:12:47.533Z,15.30
2022-12-25T22:15:37.108Z,14.90
2022-12-25T22:18:24.500Z,18.70
2022-12-25T22:20:53.337Z,17.47
2022-12-25T22:23:22.005Z,14.50
2022-12-25T22:25:50.671Z,14.63
2022-12-25T22:28:19.587Z,16.97
2022-12-25T22:30:49.949Z,15.00
2022-12-25T22:33:20.644Z,14.90
2022-12-25T22:35:49.462Z,16.40
2022-12-25T22:38:18.529Z,17.87
2022-12-25T22:40:49.677Z,16.33
2022-12-25T22:43:18.470Z,17.80
2022-12-25T22:45:50.071Z,19.60
2022-12-25T22:48:19.471Z,20.33
2022-12-25T22:50:48.628Z,17.27
2022-12-25T22:53:17.499Z,18.40
2022-12-25T22:55:47.539Z,19.03
2022-12-25T22:58:16.473Z,17.37
2022-12-25T23:00:46.663Z,18.20
2022-12-25T23:03:16.976Z,18.40
2022-12-25T23:05:45.967Z,18.80
2022-12-25T23:08:14.715Z,16.90
2022-12-25T23:10:43.471Z,16.70
2022-12-25T23:13:29.869Z,15.23
2022-12-25T23:15:58.595Z,16.27
2022-12-25T23:18:46.101Z,15.60
2022-12-25T23:21:33.480Z,15.17
2022-12-25T23:24:19.675Z,15.27
2022-12-25T23:26:48.488Z,15.27
2022-12-25T23:29:34.658Z,14.60
2022-12-25T23:32:04.387Z,14.73
2022-12-25T23:34:34.912Z,15.97
2022-12-25T23:37:03.744Z,14.93
2022-12-25T23:39:32.623Z,14.73
2022-12-25T23:42:01.699Z,15.20
2022-12-25T23:44:30.751Z,16.77
2022-12-25T23:46:59.498Z,13.80
2022-12-25T23:49:28.914Z,14.07
2022-12-25T23:51:59.095Z,14.47
2022-12-25T23:54:29.528Z,15.97
2022-12-25T23:56:59.614Z,14.43
2022-12-25T23:59:29.594Z,14.40
